Time;durP1;ratioP1;P1;durP2;ratioP2;P2;SDS_P1;SDS_P2;PMS_P1;PMS_P2;Temp;Humidity;BMP_temperature;BMP_pressure;BME280_temperature;BME280_humidity;BME280_pressure;Samples;Min_cycle;Max_cycle;Signal;HPM_P1;HPM_P2
2021/12/16 00:01:46;;;;;;;20.60;13.83;;;6.60;99.90;;;;;;4876710;29;20494;-80
2021/12/16 00:05:18;;;;;;;27.87;14.63;;;6.60;99.90;;;;;;4887575;29;20802;-80
2021/12/16 00:08:03;;;;;;;25.13;13.07;;;6.60;99.90;;;;;;4869412;29;20420;-80
2021/12/16 00:35:23;;;;;;;22.83;13.60;;;6.60;99.90;;;;;;4891560;29;20388;-80
2021/12/16 00:38:09;;;;;;;20.33;12.20;;;6.50;99.90;;;;;;4895077;29;20418;-82
2021/12/16 00:40:56;;;;;;;20.70;12.83;;;6.50;99.90;;;;;;4909893;29;20500;-79
2021/12/16 00:43:50;;;;;;;20.90;11.40;;;6.60;99.90;;;;;;4924559;29;20391;-80
2021/12/16 00:49:40;;;;;;;25.13;12.10;;;6.50;99.90;;;;;;4931367;28;20367;-80
2021/12/16 00:55:43;;;;;;;19.27;12.57;;;6.50;99.90;;;;;;5000267;28;20396;-79
2021/12/16 00:58:39;;;;;;;20.53;12.50;;;6.60;99.90;;;;;;4984187;28;20379;-80
2021/12/16 01:01:36;;;;;;;26.23;14.67;;;6.60;99.90;;;;;;4994973;28;20385;-79
2021/12/16 01:08:04;;;;;;;16.47;13.37;;;6.60;99.90;;;;;;4958429;29;20461;-80
2021/12/16 01:35:07;;;;;;;19.73;12.63;;;6.60;99.90;;;;;;4950275;28;20370;-80
2021/12/16 01:47:17;;;;;;;18.20;11.93;;;6.80;99.90;;;;;;4927834;29;20449;-80
2021/12/16 01:50:10;;;;;;;25.03;13.20;;;6.60;99.90;;;;;;4909018;29;20936;-80
2021/12/16 01:53:16;;;;;;;20.10;12.27;;;6.70;99.90;;;;;;4929281;29;20382;-80
2021/12/16 01:59:06;;;;;;;22.47;12.87;;;6.70;99.90;;;;;;4927913;29;20456;-80
2021/12/16 02:01:52;;;;;;;17.60;9.87;;;6.70;99.90;;;;;;4927571;29;20411;-80
2021/12/16 02:05:03;;;;;;;22.93;13.20;;;6.80;99.90;;;;;;4928462;29;20367;-80
2021/12/16 02:08:09;;;;;;;22.83;12.00;;;6.70;99.90;;;;;;4953497;29;20534;-79
2021/12/16 02:29:24;;;;;;;21.73;11.90;;;6.70;99.90;;;;;;4911849;29;20383;-80
2021/12/16 02:32:31;;;;;;;20.10;12.10;;;6.60;99.90;;;;;;4903191;29;20918;-80
2021/12/16 02:35:30;;;;;;;22.50;13.00;;;6.60;99.90;;;;;;4876360;29;20471;-80
2021/12/16 02:38:18;;;;;;;23.63;11.13;;;6.70;99.90;;;;;;4878299;29;20824;-79
2021/12/16 02:41:02;;;;;;;24.83;13.10;;;6.60;99.90;;;;;;4866481;29;20433;-80
2021/12/16 02:44:12;;;;;;;30.07;14.60;;;6.60;99.90;;;;;;4854313;29;20385;-80
2021/12/16 02:49:53;;;;;;;18.10;11.70;;;6.70;99.90;;;;;;4848190;29;20428;-80
2021/12/16 02:52:39;;;;;;;25.33;12.57;;;6.80;99.90;;;;;;4903230;29;20403;-80
2021/12/16 02:55:24;;;;;;;24.60;14.97;;;6.90;99.90;;;;;;4905094;29;20367;-80
2021/12/16 02:58:09;;;;;;;22.20;13.97;;;6.90;99.90;;;;;;4889956;29;20472;-80
2021/12/16 03:01:01;;;;;;;21.77;13.27;;;7.10;99.90;;;;;;4903554;29;20400;-80
2021/12/16 03:03:46;;;;;;;23.60;14.82;;;7.10;99.90;;;;;;4996122;28;20440;-80
2021/12/16 03:06:32;;;;;;;20.10;13.30;;;7.10;99.90;;;;;;4971248;28;20226;-80
2021/12/16 03:09:25;;;;;;;23.67;15.03;;;7.00;99.90;;;;;;4972673;28;20915;-77
2021/12/16 03:15:38;;;;;;;18.90;13.33;;;6.90;99.90;;;;;;4968916;28;20368;-80
2021/12/16 03:18:45;;;;;;;23.13;16.10;;;7.00;99.90;;;;;;4969218;28;20397;-79
2021/12/16 03:21:35;;;;;;;24.73;11.97;;;7.10;99.90;;;;;;4979941;28;20429;-80
2021/12/16 03:30:47;;;;;;;21.77;12.10;;;6.80;99.90;;;;;;5007848;28;20374;-80
2021/12/16 03:36:48;;;;;;;16.07;12.77;;;6.80;99.90;;;;;;5008497;28;20528;-80
2021/12/16 03:39:32;;;;;;;20.30;12.63;;;6.80;99.90;;;;;;5016035;28;20424;-80
2021/12/16 03:42:32;;;;;;;18.60;11.17;;;7.00;99.90;;;;;;5013059;28;20365;-80
2021/12/16 03:48:36;;;;;;;24.40;12.60;;;6.80;99.90;;;;;;4982349;28;20424;-80
2021/12/16 03:51:38;;;;;;;22.23;12.03;;;6.90;99.90;;;;;;4945894;28;20379;-80
2021/12/16 03:54:31;;;;;;;23.37;15.07;;;6.80;99.90;;;;;;4960087;28;20758;-80
2021/12/16 03:57:21;;;;;;;22.03;13.60;;;6.70;99.90;;;;;;4987495;28;20389;-79
2021/12/16 04:00:14;;;;;;;17.23;11.27;;;6.60;99.90;;;;;;4966119;28;20401;-80
2021/12/16 04:03:00;;;;;;;18.23;12.70;;;6.60;99.90;;;;;;4979748;28;20379;-80
2021/12/16 04:05:45;;;;;;;18.33;11.53;;;6.60;99.90;;;;;;4979597;28;20393;-79
2021/12/16 04:08:29;;;;;;;23.80;13.50;;;6.70;99.90;;;;;;4992819;28;20424;-79
2021/12/16 04:11:21;;;;;;;21.10;11.90;;;6.70;99.90;;;;;;4993358;28;20352;-80
2021/12/16 04:14:11;;;;;;;20.20;11.70;;;6.60;99.90;;;;;;5006172;28;20384;-80
2021/12/16 04:16:57;;;;;;;25.43;11.90;;;6.70;99.90;;;;;;4936273;29;20487;-80
2021/12/16 04:19:42;;;;;;;22.93;13.50;;;6.70;99.90;;;;;;4935149;29;20369;-79
2021/12/16 04:22:34;;;;;;;20.57;12.80;;;6.70;99.90;;;;;;4910898;29;20407;-80
2021/12/16 04:25:26;;;;;;;26.00;15.70;;;6.60;99.90;;;;;;4901465;29;20429;-79
2021/12/16 04:28:17;;;;;;;21.73;14.47;;;6.60;99.90;;;;;;4953997;29;20395;-80
2021/12/16 04:31:02;;;;;;;31.03;15.27;;;6.60;99.90;;;;;;4939734;29;20401;-79
2021/12/16 04:33:49;;;;;;;25.47;12.90;;;6.60;99.90;;;;;;4953026;28;20394;-80
2021/12/16 04:36:35;;;;;;;24.60;12.43;;;6.70;99.90;;;;;;4953388;29;20373;-80
2021/12/16 04:39:23;;;;;;;17.77;11.70;;;6.80;99.90;;;;;;4952905;28;20454;-80
2021/12/16 04:42:08;;;;;;;25.20;15.87;;;6.80;99.90;;;;;;4940117;29;20380;-80
2021/12/16 04:44:53;;;;;;;26.63;14.20;;;6.80;99.90;;;;;;4966498;29;20866;-80
2021/12/16 04:47:38;;;;;;;22.10;14.90;;;6.90;99.90;;;;;;4981384;28;20552;-79
2021/12/16 04:50:23;;;;;;;30.73;16.43;;;6.90;99.90;;;;;;4966919;28;20413;-80
2021/12/16 04:53:08;;;;;;;19.40;12.73;;;6.90;99.90;;;;;;4976749;28;20392;-80
2021/12/16 04:55:53;;;;;;;21.33;13.10;;;6.90;99.90;;;;;;4958681;28;20364;-79
2021/12/16 04:58:40;;;;;;;22.03;11.90;;;6.80;99.90;;;;;;4958870;28;20365;-79
2021/12/16 05:01:24;;;;;;;22.23;15.43;;;6.80;99.90;;;;;;4965598;28;20441;-80
2021/12/16 05:04:11;;;;;;;26.93;13.77;;;6.80;99.90;;;;;;4881785;29;20444;-79
2021/12/16 05:06:55;;;;;;;19.53;13.23;;;6.90;99.90;;;;;;4844272;29;20620;-80
2021/12/16 05:12:52;;;;;;;36.57;19.70;;;6.90;99.90;;;;;;4852690;29;20965;-80
2021/12/16 05:15:38;;;;;;;32.37;13.87;;;6.90;99.90;;;;;;4888351;29;20874;-80
2021/12/16 05:18:30;;;;;;;20.70;12.43;;;6.80;99.90;;;;;;4856594;29;20445;-79
2021/12/16 05:21:41;;;;;;;23.07;14.50;;;6.70;99.90;;;;;;4869926;29;20417;-80
2021/12/16 05:24:25;;;;;;;20.00;13.20;;;6.70;99.90;;;;;;4859135;29;20422;-79
2021/12/16 05:27:10;;;;;;;22.87;12.83;;;6.60;99.90;;;;;;4820905;29;20474;-80
2021/12/16 05:29:54;;;;;;;27.60;14.67;;;6.60;99.90;;;;;;4820484;29;20466;-80
2021/12/16 05:32:45;;;;;;;24.37;14.13;;;6.70;99.90;;;;;;4866814;29;20462;-79
2021/12/16 05:35:30;;;;;;;19.63;12.57;;;6.80;99.90;;;;;;4888929;29;20431;-80
2021/12/16 05:38:15;;;;;;;31.73;14.97;;;6.70;99.90;;;;;;4896707;29;20765;-80
2021/12/16 05:41:02;;;;;;;30.20;14.60;;;6.80;99.90;;;;;;4909598;29;20444;-80
2021/12/16 05:43:49;;;;;;;34.13;16.37;;;6.70;99.90;;;;;;4890447;29;20495;-80
2021/12/16 05:46:35;;;;;;;21.90;12.80;;;6.70;99.90;;;;;;4862954;29;21001;-80
2021/12/16 05:49:20;;;;;;;16.47;10.67;;;6.80;99.90;;;;;;4873999;29;20402;-80
2021/12/16 05:52:06;;;;;;;23.43;14.40;;;6.90;99.90;;;;;;4949459;28;20377;-79
2021/12/16 05:54:51;;;;;;;26.67;15.17;;;6.80;99.90;;;;;;4975925;29;20377;-78
2021/12/16 05:58:00;;;;;;;24.80;15.23;;;6.90;99.90;;;;;;4950087;29;20396;-80
2021/12/16 06:00:47;;;;;;;26.60;14.37;;;6.80;99.90;;;;;;4956184;29;20385;-80
2021/12/16 06:03:33;;;;;;;24.33;13.83;;;6.90;99.90;;;;;;4948182;28;20797;-80
2021/12/16 06:06:19;;;;;;;22.27;12.00;;;6.80;99.90;;;;;;4949977;29;20452;-80
2021/12/16 06:09:05;;;;;;;23.97;14.17;;;6.70;99.90;;;;;;4961366;28;20457;-79
2021/12/16 06:11:52;;;;;;;22.93;14.40;;;6.80;99.90;;;;;;4933819;28;20422;-80
2021/12/16 06:14:52;;;;;;;26.77;14.33;;;6.70;99.90;;;;;;4955555;29;20441;-80
2021/12/16 06:26:42;;;;;;;25.97;16.13;;;7.00;99.90;;;;;;4931510;29;20560;-79
2021/12/16 06:29:26;;;;;;;26.70;16.47;;;6.90;99.90;;;;;;4931220;29;20403;-79
2021/12/16 06:32:13;;;;;;;24.43;13.70;;;6.70;99.90;;;;;;4917325;29;20378;-79
2021/12/16 06:34:57;;;;;;;22.10;14.90;;;6.80;99.90;;;;;;4929519;29;20426;-79
2021/12/16 06:37:44;;;;;;;28.43;15.20;;;6.70;99.90;;;;;;4928995;29;20421;-79
2021/12/16 06:40:28;;;;;;;24.93;14.53;;;6.70;99.90;;;;;;4943102;29;20811;-79
2021/12/16 06:43:15;;;;;;;25.80;13.77;;;6.80;99.90;;;;;;4949877;29;20993;-79
2021/12/16 06:46:04;;;;;;;24.93;14.60;;;6.70;99.90;;;;;;4961430;28;20456;-79
2021/12/16 06:48:56;;;;;;;25.53;14.90;;;6.70;99.90;;;;;;4981980;28;20569;-79
2021/12/16 06:51:53;;;;;;;23.50;14.80;;;6.90;99.90;;;;;;4992954;28;20427;-79
2021/12/16 06:54:43;;;;;;;21.23;14.67;;;7.10;99.90;;;;;;4989068;28;20453;-79
2021/12/16 06:57:41;;;;;;;28.83;16.20;;;6.90;99.90;;;;;;5038553;28;20444;-79
2021/12/16 07:00:33;;;;;;;24.00;15.10;;;6.90;99.90;;;;;;5041421;28;20395;-79
2021/12/16 07:03:22;;;;;;;21.53;13.40;;;6.90;99.90;;;;;;5012508;28;20473;-79
2021/12/16 07:06:06;;;;;;;24.27;13.10;;;6.60;99.90;;;;;;5024411;28;20444;-79
2021/12/16 07:08:57;;;;;;;25.07;15.00;;;6.60;99.90;;;;;;5027115;28;20433;-79
2021/12/16 07:11:52;;;;;;;27.10;14.57;;;6.80;99.90;;;;;;5026383;28;20405;-80
2021/12/16 07:14:39;;;;;;;29.17;16.97;;;6.70;99.90;;;;;;5036196;28;20560;-79
2021/12/16 07:17:24;;;;;;;25.60;16.47;;;6.80;99.90;;;;;;5004639;28;20394;-79
2021/12/16 07:20:12;;;;;;;25.17;14.30;;;6.70;99.90;;;;;;4995635;28;20388;-79
2021/12/16 07:22:59;;;;;;;26.47;15.33;;;6.80;99.90;;;;;;5013015;28;20522;-79
2021/12/16 07:25:43;;;;;;;26.90;16.30;;;6.70;99.90;;;;;;5038093;28;20473;-80
2021/12/16 07:28:29;;;;;;;26.90;15.97;;;6.90;99.90;;;;;;5010147;28;20463;-79
2021/12/16 07:31:15;;;;;;;25.33;15.00;;;6.90;99.90;;;;;;4985582;28;20454;-80
2021/12/16 07:34:02;;;;;;;29.03;19.30;;;6.80;99.90;;;;;;5031479;28;20519;-79
2021/12/16 07:36:48;;;;;;;29.97;15.53;;;7.00;99.90;;;;;;5023295;28;20430;-79
2021/12/16 07:39:40;;;;;;;34.20;16.90;;;7.10;99.90;;;;;;5022846;28;20424;-79
2021/12/16 07:42:29;;;;;;;27.63;15.70;;;7.20;99.90;;;;;;4995214;28;20483;-79
2021/12/16 07:45:16;;;;;;;24.73;14.27;;;7.00;99.90;;;;;;4992376;28;20393;-80
2021/12/16 07:48:01;;;;;;;23.77;14.80;;;6.90;99.90;;;;;;5007289;28;20867;-80
2021/12/16 07:50:50;;;;;;;26.53;18.63;;;6.80;99.90;;;;;;4988664;28;20431;-79
2021/12/16 07:53:40;;;;;;;34.00;16.63;;;6.80;99.90;;;;;;4959630;28;20421;-79
2021/12/16 07:56:24;;;;;;;29.23;15.20;;;7.00;99.90;;;;;;4944760;28;20426;-79
2021/12/16 07:59:08;;;;;;;32.33;16.97;;;7.20;99.90;;;;;;4958886;28;20417;-79
2021/12/16 08:01:54;;;;;;;32.43;15.90;;;7.20;99.90;;;;;;4933684;28;20421;-79
2021/12/16 08:04:45;;;;;;;29.27;16.77;;;7.30;99.90;;;;;;4942453;28;20448;-79
2021/12/16 08:07:30;;;;;;;25.43;14.60;;;7.40;99.90;;;;;;4959683;28;20462;-79
2021/12/16 08:10:40;;;;;;;24.80;15.10;;;7.40;99.90;;;;;;4960900;28;20434;-78
2021/12/16 08:13:48;;;;;;;28.10;15.50;;;7.50;99.90;;;;;;4972322;28;20749;-78
2021/12/16 08:16:34;;;;;;;26.20;16.83;;;7.20;99.90;;;;;;4959219;28;20516;-78
2021/12/16 08:19:39;;;;;;;27.57;14.50;;;7.30;99.90;;;;;;4931412;29;20402;-78
2021/12/16 08:22:47;;;;;;;30.53;15.50;;;7.30;99.90;;;;;;4946987;29;20421;-78
2021/12/16 08:25:37;;;;;;;22.77;14.30;;;7.40;99.90;;;;;;4910839;29;20418;-78
2021/12/16 08:28:22;;;;;;;24.57;13.90;;;7.50;99.90;;;;;;4915415;29;20951;-78
2021/12/16 08:31:07;;;;;;;31.87;17.37;;;7.10;99.90;;;;;;4921851;29;20866;-78
2021/12/16 08:33:57;;;;;;;27.93;15.07;;;7.00;99.90;;;;;;4870469;29;20438;-78
2021/12/16 08:36:46;;;;;;;26.20;17.07;;;7.10;99.90;;;;;;4843457;29;20427;-78
2021/12/16 08:39:35;;;;;;;32.43;17.50;;;7.30;99.90;;;;;;4854442;29;20465;-79
2021/12/16 08:42:20;;;;;;;27.97;18.80;;;7.50;99.90;;;;;;4877026;29;20401;-78
2021/12/16 08:45:10;;;;;;;25.07;17.07;;;7.50;99.90;;;;;;4900359;29;20447;-78
2021/12/16 08:47:59;;;;;;;22.30;14.77;;;7.10;99.90;;;;;;4926568;29;20955;-78
2021/12/16 08:50:48;;;;;;;25.00;14.10;;;7.20;99.90;;;;;;4927193;29;20441;-78
2021/12/16 08:53:56;;;;;;;26.93;16.67;;;7.10;99.90;;;;;;4912542;29;20488;-78
2021/12/16 08:56:42;;;;;;;31.03;16.90;;;7.00;99.90;;;;;;4864948;29;20527;-78
2021/12/16 08:59:28;;;;;;;22.83;14.53;;;7.10;99.90;;;;;;4850894;29;20453;-78
2021/12/16 09:02:35;;;;;;;28.17;16.63;;;7.10;99.90;;;;;;4839323;29;20552;-78
2021/12/16 09:05:23;;;;;;;26.67;16.77;;;7.40;99.90;;;;;;4790057;29;20449;-79
2021/12/16 09:08:08;;;;;;;28.63;15.83;;;7.40;99.90;;;;;;4783710;29;20435;-79
2021/12/16 09:10:54;;;;;;;29.33;15.57;;;7.40;99.90;;;;;;4803754;29;20489;-80
2021/12/16 09:13:41;;;;;;;28.00;15.60;;;7.50;99.90;;;;;;4812664;29;20921;-79
2021/12/16 09:16:28;;;;;;;24.17;14.97;;;7.60;99.90;;;;;;4823862;29;20557;-80
2021/12/16 09:19:12;;;;;;;31.80;18.63;;;7.70;99.90;;;;;;4812733;29;20839;-79
2021/12/16 09:22:00;;;;;;;27.27;16.47;;;7.80;99.90;;;;;;4834532;29;20480;-79
2021/12/16 09:24:48;;;;;;;25.80;17.90;;;7.80;99.90;;;;;;4827966;29;20496;-79
2021/12/16 09:27:32;;;;;;;24.40;15.20;;;7.90;99.90;;;;;;4883051;29;20481;-80
2021/12/16 09:30:22;;;;;;;27.23;15.13;;;7.90;99.90;;;;;;4881556;29;20444;-79
2021/12/16 09:33:13;;;;;;;30.77;18.00;;;7.90;99.90;;;;;;4876608;29;20436;-79
2021/12/16 09:36:00;;;;;;;27.47;15.37;;;7.90;99.90;;;;;;4881690;29;20408;-79
2021/12/16 09:38:45;;;;;;;34.20;15.63;;;8.00;99.90;;;;;;4866906;29;20918;-79
2021/12/16 09:41:29;;;;;;;29.70;15.83;;;7.60;99.90;;;;;;4847070;29;20496;-79
2021/12/16 09:44:16;;;;;;;29.57;17.00;;;7.70;99.90;;;;;;4889977;29;20409;-79
2021/12/16 09:47:03;;;;;;;29.13;16.60;;;7.80;99.90;;;;;;4969903;28;20504;-79
2021/12/16 09:49:49;;;;;;;26.23;14.20;;;7.90;99.90;;;;;;4993653;28;20416;-79
2021/12/16 09:52:35;;;;;;;42.63;20.43;;;7.60;99.90;;;;;;4957920;28;20412;-79
2021/12/16 09:55:20;;;;;;;31.93;18.43;;;7.80;99.90;;;;;;4929243;29;20398;-79
2021/12/16 09:58:06;;;;;;;24.60;15.07;;;7.80;99.90;;;;;;4896022;29;20489;-78
2021/12/16 10:00:52;;;;;;;31.93;16.87;;;7.50;99.90;;;;;;4884053;29;20528;-79
2021/12/16 10:03:42;;;;;;;29.67;16.67;;;7.70;99.90;;;;;;4897119;29;20406;-79
2021/12/16 10:06:27;;;;;;;25.57;16.37;;;7.70;99.90;;;;;;4902919;29;20486;-79
2021/12/16 10:09:13;;;;;;;23.90;13.27;;;7.70;99.90;;;;;;4915550;29;20502;-80
2021/12/16 10:12:04;;;;;;;27.03;15.60;;;7.80;99.90;;;;;;4920530;29;20468;-79
2021/12/16 10:15:04;;;;;;;26.80;15.50;;;7.50;99.90;;;;;;4880944;29;20385;-80
2021/12/16 10:17:49;;;;;;;37.40;17.67;;;7.60;99.90;;;;;;4869830;29;20493;-79
2021/12/16 10:20:41;;;;;;;29.97;17.30;;;7.80;99.90;;;;;;4872724;29;20408;-78
2021/12/16 10:23:38;;;;;;;27.83;17.80;;;7.70;99.90;;;;;;4903591;29;20424;-79
2021/12/16 10:26:25;;;;;;;26.20;16.47;;;7.70;99.90;;;;;;4904302;29;20975;-79
2021/12/16 10:29:11;;;;;;;33.13;16.57;;;8.00;99.90;;;;;;4920634;29;20422;-79
2021/12/16 10:31:55;;;;;;;31.77;17.90;;;8.00;99.90;;;;;;4902258;29;20451;-79
2021/12/16 10:34:41;;;;;;;29.73;18.03;;;8.20;99.90;;;;;;4901992;29;20535;-79
2021/12/16 10:37:30;;;;;;;28.77;16.37;;;8.20;99.90;;;;;;4917250;29;20433;-80
2021/12/16 10:40:26;;;;;;;25.50;17.33;;;8.30;99.90;;;;;;4928631;29;20558;-79
2021/12/16 10:43:34;;;;;;;29.83;17.10;;;8.10;99.90;;;;;;4920033;29;20504;-79
2021/12/16 10:46:23;;;;;;;28.70;14.63;;;8.10;99.90;;;;;;4893837;29;20437;-79
2021/12/16 10:49:35;;;;;;;27.13;16.53;;;8.00;99.90;;;;;;4886299;29;20830;-79
2021/12/16 10:52:26;;;;;;;28.57;17.37;;;8.00;99.90;;;;;;4850318;29;20436;-79
2021/12/16 10:55:11;;;;;;;23.03;16.43;;;8.20;99.90;;;;;;4866032;29;20441;-79
2021/12/16 10:57:55;;;;;;;28.60;15.87;;;8.10;99.90;;;;;;4872571;29;20429;-77
2021/12/16 11:00:40;;;;;;;29.27;16.97;;;8.00;99.90;;;;;;4841025;29;20448;-77
2021/12/16 11:03:41;;;;;;;34.27;17.40;;;8.20;99.90;;;;;;4844946;29;20407;-77
2021/12/16 11:06:34;;;;;;;30.83;16.77;;;8.00;99.90;;;;;;4858486;29;20592;-79
2021/12/16 11:09:39;;;;;;;22.77;15.07;;;7.90;99.90;;;;;;4863859;29;20487;-79
2021/12/16 11:13:03;;;;;;;30.83;17.77;;;7.90;99.90;;;;;;4883110;29;20421;-79
2021/12/16 11:16:07;;;;;;;24.70;16.73;;;8.00;99.90;;;;;;4899095;29;20480;-78
2021/12/16 11:18:51;;;;;;;28.67;16.27;;;8.20;99.90;;;;;;4914735;29;20406;-79
2021/12/16 11:21:40;;;;;;;20.83;15.80;;;8.00;99.90;;;;;;4912284;29;20972;-80
2021/12/16 11:24:25;;;;;;;33.17;17.30;;;8.00;99.90;;;;;;4941182;28;20428;-79
2021/12/16 11:27:31;;;;;;;29.77;16.57;;;8.00;99.90;;;;;;4978534;28;20618;-77
2021/12/16 11:30:41;;;;;;;30.13;18.23;;;7.90;99.90;;;;;;4905950;29;20397;-79
2021/12/16 11:33:39;;;;;;;29.90;16.20;;;8.20;99.90;;;;;;4895580;29;20445;-77
2021/12/16 11:36:40;;;;;;;31.73;15.80;;;8.50;99.90;;;;;;4914441;29;20466;-78
2021/12/16 11:39:29;;;;;;;28.57;17.60;;;8.40;99.90;;;;;;4921313;29;20453;-77
2021/12/16 11:42:27;;;;;;;26.17;15.90;;;8.40;99.90;;;;;;4927744;29;20512;-80
2021/12/16 11:45:28;;;;;;;33.27;18.83;;;8.60;99.90;;;;;;4947172;29;20489;-79
2021/12/16 11:48:32;;;;;;;29.00;17.13;;;8.50;99.90;;;;;;4987726;28;20438;-79
2021/12/16 11:51:27;;;;;;;27.30;16.60;;;8.60;99.90;;;;;;4986622;28;20464;-78
2021/12/16 11:54:25;;;;;;;23.37;16.73;;;8.60;99.90;;;;;;4985850;28;20448;-80
2021/12/16 11:57:32;;;;;;;25.40;15.77;;;8.70;99.90;;;;;;4964262;28;21598;-79
2021/12/16 12:00:23;;;;;;;23.27;15.17;;;8.80;99.90;;;;;;4925835;29;20470;-79
2021/12/16 12:03:30;;;;;;;24.13;15.10;;;8.80;99.90;;;;;;4932166;29;20422;-80
2021/12/16 12:06:20;;;;;;;26.53;16.60;;;8.80;99.90;;;;;;4864419;29;20453;-79
2021/12/16 12:09:08;;;;;;;27.07;16.20;;;8.50;99.90;;;;;;4869773;29;20560;-79
2021/12/16 12:11:53;;;;;;;21.43;14.67;;;8.30;99.90;;;;;;4887726;29;20441;-80
2021/12/16 12:14:39;;;;;;;20.67;13.97;;;8.50;99.90;;;;;;4877431;29;20499;-79
2021/12/16 12:17:23;;;;;;;26.77;14.90;;;8.50;99.90;;;;;;4894947;29;20496;-80
2021/12/16 12:20:10;;;;;;;29.63;16.60;;;8.70;99.90;;;;;;4902233;29;20433;-79
2021/12/16 12:22:55;;;;;;;22.80;13.80;;;8.80;99.90;;;;;;4903637;29;20465;-81
2021/12/16 12:25:40;;;;;;;19.20;13.20;;;8.50;99.90;;;;;;4906048;29;20398;-80
2021/12/16 12:28:24;;;;;;;25.73;15.23;;;8.60;99.90;;;;;;4903227;29;20780;-80
2021/12/16 12:31:09;;;;;;;24.97;15.00;;;8.40;99.90;;;;;;4960440;28;20493;-79
2021/12/16 12:33:53;;;;;;;25.53;15.07;;;8.20;99.90;;;;;;4982978;28;20427;-79
2021/12/16 12:36:37;;;;;;;23.23;15.60;;;8.30;99.90;;;;;;5034627;28;20514;-80
2021/12/16 12:39:26;;;;;;;25.20;15.33;;;8.50;99.90;;;;;;5057942;28;20514;-80
2021/12/16 12:42:12;;;;;;;23.90;14.67;;;8.60;99.90;;;;;;5088251;28;20411;-79
2021/12/16 12:44:56;;;;;;;29.10;15.73;;;8.80;99.90;;;;;;5065363;28;20422;-79
2021/12/16 12:47:45;;;;;;;21.13;13.57;;;8.90;99.90;;;;;;5074416;28;20442;-79
2021/12/16 12:50:35;;;;;;;22.47;15.10;;;8.90;99.90;;;;;;5082998;28;20425;-79
2021/12/16 12:53:23;;;;;;;28.37;16.30;;;9.00;99.90;;;;;;5066280;28;20463;-79
2021/12/16 12:56:16;;;;;;;21.00;15.00;;;9.00;99.90;;;;;;5086434;28;20425;-79
2021/12/16 12:59:06;;;;;;;23.37;15.90;;;9.10;99.90;;;;;;5083937;28;20387;-80
2021/12/16 13:01:54;;;;;;;21.50;14.07;;;9.10;99.90;;;;;;5073162;28;20379;-79
2021/12/16 13:04:52;;;;;;;23.73;16.50;;;9.10;99.90;;;;;;5090001;28;20412;-80
2021/12/16 13:07:43;;;;;;;26.80;14.20;;;9.10;99.90;;;;;;5070367;28;20435;-78
2021/12/16 13:10:34;;;;;;;20.97;14.47;;;8.90;99.90;;;;;;5064947;28;20475;-78
2021/12/16 13:13:31;;;;;;;25.20;15.70;;;9.00;99.90;;;;;;5074206;28;20404;-79
2021/12/16 13:16:50;;;;;;;23.93;14.83;;;9.10;99.90;;;;;;5049540;28;20959;-78
2021/12/16 13:28:58;;;;;;;26.87;15.53;;;9.20;99.90;;;;;;5056079;28;20480;-80
2021/12/16 13:35:22;;;;;;;24.17;16.80;;;9.30;99.90;;;;;;5069470;28;20480;-80
2021/12/16 13:38:17;;;;;;;29.97;15.30;;;9.20;99.90;;;;;;5052536;28;20423;-80
2021/12/16 13:41:09;;;;;;;26.00;15.20;;;9.20;99.90;;;;;;5046915;28;20513;-79
2021/12/16 13:44:00;;;;;;;20.87;13.50;;;9.30;99.90;;;;;;5032819;28;20445;-79
2021/12/16 13:47:07;;;;;;;24.20;15.40;;;9.30;99.90;;;;;;5018086;28;20568;-79
2021/12/16 14:02:55;;;;;;;26.33;15.57;;;9.20;99.90;;;;;;5028013;28;20428;-79
2021/12/16 14:05:57;;;;;;;29.00;16.43;;;9.20;99.90;;;;;;5025945;28;20452;-79
2021/12/16 14:08:47;;;;;;;29.40;15.90;;;9.20;99.90;;;;;;5016691;28;20410;-79
2021/12/16 14:12:31;;;;;;;17.87;15.10;;;9.20;99.90;;;;;;4999499;28;21012;-78
2021/12/16 14:14:55;;;;;;;25.37;15.63;;;9.20;99.90;;;;;;5006955;28;20483;-79
2021/12/16 14:17:50;;;;;;;22.73;15.13;;;9.10;99.90;;;;;;4997268;28;20554;-79
2021/12/16 14:24:00;;;;;;;24.33;15.23;;;9.00;99.90;;;;;;4996665;28;20648;-80
2021/12/16 14:27:19;;;;;;;27.90;15.07;;;9.00;99.90;;;;;;4988066;28;20509;-79
2021/12/16 14:37:00;;;;;;;26.50;15.43;;;8.90;99.90;;;;;;4999631;28;20451;-79
2021/12/16 14:42:47;;;;;;;27.03;16.20;;;8.80;99.90;;;;;;4994977;28;20506;-81
2021/12/16 14:45:43;;;;;;;27.30;16.23;;;8.80;99.90;;;;;;4969764;28;20464;-78
2021/12/16 14:48:33;;;;;;;24.60;17.27;;;8.80;99.90;;;;;;4930276;29;20536;-80
2021/12/16 14:51:20;;;;;;;20.13;16.93;;;8.80;99.90;;;;;;4929957;29;20479;-78
2021/12/16 14:54:07;;;;;;;22.43;13.70;;;8.80;99.90;;;;;;4956477;28;20441;-79
2021/12/16 14:56:57;;;;;;;25.53;14.53;;;8.80;99.90;;;;;;4964173;28;20448;-80
2021/12/16 14:59:43;;;;;;;20.00;13.67;;;8.80;99.90;;;;;;4984330;28;20538;-80
2021/12/16 15:02:32;;;;;;;21.43;14.83;;;8.70;99.90;;;;;;4956516;28;20432;-79
2021/12/16 15:05:40;;;;;;;23.30;13.70;;;8.70;99.90;;;;;;4979784;28;20410;-80
2021/12/16 15:08:37;;;;;;;24.50;15.27;;;8.70;99.90;;;;;;4996388;28;20439;-80
2021/12/16 15:11:39;;;;;;;25.70;15.50;;;8.50;99.90;;;;;;4985286;28;20420;-80
2021/12/16 15:31:40;;;;;;;23.20;16.00;;;8.60;99.90;;;;;;4990609;28;20427;-80
2021/12/16 15:39:09;;;;;;;26.47;14.80;;;8.60;99.90;;;;;;4966093;28;20404;-81
2021/12/16 15:45:02;;;;;;;24.23;16.10;;;8.70;99.90;;;;;;4962210;28;20449;-80
2021/12/16 15:47:54;;;;;;;18.37;14.20;;;8.70;99.90;;;;;;4984332;28;20484;-82
2021/12/16 15:50:44;;;;;;;26.67;13.90;;;8.70;99.90;;;;;;4960625;28;20396;-81
2021/12/16 15:53:32;;;;;;;30.87;14.77;;;8.70;99.90;;;;;;4982535;28;20480;-80
2021/12/16 15:56:23;;;;;;;28.63;16.63;;;8.70;99.90;;;;;;5031118;28;20493;-81
2021/12/16 15:59:10;;;;;;;28.53;16.87;;;8.70;99.90;;;;;;5029224;28;20410;-82
2021/12/16 16:01:56;;;;;;;24.47;17.93;;;8.60;99.90;;;;;;5085082;28;20416;-80
2021/12/16 16:04:40;;;;;;;21.23;15.90;;;8.60;99.90;;;;;;5044462;28;20469;-82
2021/12/16 16:07:25;;;;;;;28.90;16.67;;;8.70;99.90;;;;;;5070736;28;20476;-80
2021/12/16 16:10:13;;;;;;;21.93;15.97;;;8.70;99.90;;;;;;5067742;28;20479;-81
2021/12/16 16:13:08;;;;;;;32.63;16.77;;;8.70;99.90;;;;;;5083650;28;20417;-81
2021/12/16 16:15:56;;;;;;;25.33;17.10;;;8.70;99.90;;;;;;5082196;28;20444;-82
2021/12/16 16:18:49;;;;;;;27.53;16.77;;;8.70;99.90;;;;;;5069196;28;20375;-80
2021/12/16 16:21:37;;;;;;;25.00;18.50;;;8.70;99.90;;;;;;5082185;28;20452;-81
2021/12/16 16:24:32;;;;;;;28.57;17.47;;;8.60;99.90;;;;;;5068380;28;20405;-82
2021/12/16 16:27:23;;;;;;;27.80;17.50;;;8.60;99.90;;;;;;5075242;28;20433;-80
2021/12/16 16:30:07;;;;;;;22.23;15.87;;;8.60;99.90;;;;;;5084052;28;20463;-79
2021/12/16 16:33:14;;;;;;;32.60;16.93;;;8.60;99.90;;;;;;5077260;28;20947;-80
2021/12/16 16:36:04;;;;;;;29.20;17.93;;;8.60;99.90;;;;;;5082919;28;20405;-80
2021/12/16 16:38:53;;;;;;;26.13;16.77;;;8.60;99.90;;;;;;5079334;28;20391;-81
2021/12/16 16:41:42;;;;;;;30.30;18.33;;;8.70;99.90;;;;;;5047565;28;20439;-80
2021/12/16 16:44:28;;;;;;;28.53;17.80;;;8.70;99.90;;;;;;5060219;28;20445;-81
2021/12/16 16:47:24;;;;;;;27.77;20.00;;;8.70;99.90;;;;;;5059898;28;20476;-80
2021/12/16 16:50:10;;;;;;;25.87;17.90;;;8.60;99.90;;;;;;5062291;28;20417;-80
2021/12/16 16:52:55;;;;;;;28.27;18.03;;;8.40;99.90;;;;;;5052461;28;20409;-79
2021/12/16 16:55:46;;;;;;;25.80;17.30;;;8.30;99.90;;;;;;5063049;28;20388;-79
2021/12/16 16:58:33;;;;;;;19.30;16.93;;;8.40;99.90;;;;;;5049134;28;20373;-80
2021/12/16 17:01:17;;;;;;;25.13;16.13;;;8.50;99.90;;;;;;5050377;28;20414;-81
2021/12/16 17:04:06;;;;;;;25.50;18.10;;;8.40;99.90;;;;;;5045298;28;20431;-80
2021/12/16 17:06:55;;;;;;;26.77;18.67;;;8.20;99.90;;;;;;5051268;28;20495;-80
2021/12/16 17:09:41;;;;;;;26.93;18.20;;;8.20;99.90;;;;;;5061931;28;20417;-80
2021/12/16 17:12:33;;;;;;;30.10;17.27;;;8.30;99.90;;;;;;5059558;28;20816;-80
2021/12/16 17:15:33;;;;;;;24.17;17.63;;;8.40;99.90;;;;;;5058383;28;20493;-80
2021/12/16 17:18:23;;;;;;;26.30;17.67;;;8.40;99.90;;;;;;5031004;28;20425;-80
2021/12/16 17:21:26;;;;;;;24.90;15.90;;;8.60;99.90;;;;;;5050045;28;20446;-80
2021/12/16 17:24:14;;;;;;;25.07;16.20;;;8.60;99.90;;;;;;5048393;28;20494;-79
2021/12/16 17:27:03;;;;;;;26.20;16.20;;;8.60;99.90;;;;;;5067538;28;20428;-79
2021/12/16 17:29:59;;;;;;;25.10;15.80;;;8.60;99.90;;;;;;5069277;28;20520;-79
2021/12/16 17:32:46;;;;;;;25.00;15.63;;;8.50;99.90;;;;;;5047664;28;20466;-78
2021/12/16 17:35:36;;;;;;;27.03;15.33;;;8.50;99.90;;;;;;5051621;28;20456;-79
2021/12/16 17:38:23;;;;;;;25.60;14.03;;;8.50;99.90;;;;;;5062772;28;20456;-80
2021/12/16 17:41:09;;;;;;;28.93;16.50;;;8.50;99.90;;;;;;5075680;28;20461;-79